sensor_id;sensor_type;location;lat;lon;timestamp;P1;durP1;ratioP1;P2;durP2;ratioP2
17449;SDS011;8842;51.244;7.102;2024-03-02T00:01:43;7.60;;;7.20;;
17449;SDS011;8842;51.244;7.102;2024-03-02T00:06:48;9.23;;;7.80;;
17449;SDS011;8842;51.244;7.102;2024-03-02T00:12:02;7.93;;;7.53;;
17449;SDS011;8842;51.244;7.102;2024-03-02T00:22:19;9.30;;;8.70;;
17449;SDS011;8842;51.244;7.102;2024-03-02T00:27:23;7.80;;;7.40;;
17449;SDS011;8842;51.244;7.102;2024-03-02T00:32:27;7.70;;;7.30;;
17449;SDS011;8842;51.244;7.102;2024-03-02T00:37:39;7.90;;;7.50;;
17449;SDS011;8842;51.244;7.102;2024-03-02T00:47:54;7.97;;;7.57;;
17449;SDS011;8842;51.244;7.102;2024-03-02T00:52:58;7.90;;;7.50;;
17449;SDS011;8842;51.244;7.102;2024-03-02T00:58:03;7.70;;;7.30;;
17449;SDS011;8842;51.244;7.102;2024-03-02T01:03:07;7.63;;;7.23;;
17449;SDS011;8842;51.244;7.102;2024-03-02T01:08:13;7.20;;;6.90;;
17449;SDS011;8842;51.244;7.102;2024-03-02T01:13:17;7.97;;;7.57;;
17449;SDS011;8842;51.244;7.102;2024-03-02T01:18:21;8.10;;;7.70;;
17449;SDS011;8842;51.244;7.102;2024-03-02T01:23:33;8.20;;;7.80;;
17449;SDS011;8842;51.244;7.102;2024-03-02T01:28:37;7.70;;;7.30;;
17449;SDS011;8842;51.244;7.102;2024-03-02T01:33:49;8.00;;;7.60;;
17449;SDS011;8842;51.244;7.102;2024-03-02T01:38:53;8.23;;;7.83;;
17449;SDS011;8842;51.244;7.102;2024-03-02T01:43:57;8.77;;;8.27;;
17449;SDS011;8842;51.244;7.102;2024-03-02T01:49:01;8.30;;;7.90;;
17449;SDS011;8842;51.244;7.102;2024-03-02T01:54:05;8.17;;;7.77;;
17449;SDS011;8842;51.244;7.102;2024-03-02T01:59:17;8.40;;;8.00;;
17449;SDS011;8842;51.244;7.102;2024-03-02T02:04:29;8.20;;;7.80;;
17449;SDS011;8842;51.244;7.102;2024-03-02T02:09:33;8.03;;;7.63;;
17449;SDS011;8842;51.244;7.102;2024-03-02T02:14:37;8.37;;;7.97;;
17449;SDS011;8842;51.244;7.102;2024-03-02T02:19:49;8.10;;;7.70;;
17449;SDS011;8842;51.244;7.102;2024-03-02T02:24:53;7.90;;;7.50;;
17449;SDS011;8842;51.244;7.102;2024-03-02T02:30:10;8.30;;;7.90;;
17449;SDS011;8842;51.244;7.102;2024-03-02T02:35:15;8.00;;;7.60;;
17449;SDS011;8842;51.244;7.102;2024-03-02T02:40:19;7.90;;;7.50;;
17449;SDS011;8842;51.244;7.102;2024-03-02T02:45:31;8.20;;;7.80;;
17449;SDS011;8842;51.244;7.102;2024-03-02T02:50:35;8.73;;;8.33;;
17449;SDS011;8842;51.244;7.102;2024-03-02T02:55:40;8.20;;;7.80;;
17449;SDS011;8842;51.244;7.102;2024-03-02T03:00:46;8.00;;;7.60;;
17449;SDS011;8842;51.244;7.102;2024-03-02T03:06:00;7.93;;;7.53;;
17449;SDS011;8842;51.244;7.102;2024-03-02T03:11:05;8.50;;;7.90;;
17449;SDS011;8842;51.244;7.102;2024-03-02T03:16:17;8.50;;;7.80;;
17449;SDS011;8842;51.244;7.102;2024-03-02T03:21:21;8.10;;;7.70;;
17449;SDS011;8842;51.244;7.102;2024-03-02T03:26:33;8.43;;;8.03;;
17449;SDS011;8842;51.244;7.102;2024-03-02T03:31:39;8.03;;;7.60;;
17449;SDS011;8842;51.244;7.102;2024-03-02T03:36:51;8.00;;;7.60;;
17449;SDS011;8842;51.244;7.102;2024-03-02T03:41:55;8.50;;;8.10;;
17449;SDS011;8842;51.244;7.102;2024-03-02T03:46:59;8.03;;;7.63;;
17449;SDS011;8842;51.244;7.102;2024-03-02T03:57:15;7.97;;;7.57;;
17449;SDS011;8842;51.244;7.102;2024-03-02T04:02:20;8.00;;;7.60;;
17449;SDS011;8842;51.244;7.102;2024-03-02T04:07:32;7.93;;;7.53;;
17449;SDS011;8842;51.244;7.102;2024-03-02T04:12:36;7.87;;;7.47;;
17449;SDS011;8842;51.244;7.102;2024-03-02T04:22:51;7.50;;;7.17;;
17449;SDS011;8842;51.244;7.102;2024-03-02T04:27:55;7.70;;;7.30;;
17449;SDS011;8842;51.244;7.102;2024-03-02T04:32:59;8.00;;;7.60;;
17449;SDS011;8842;51.244;7.102;2024-03-02T04:38:11;7.80;;;7.40;;
17449;SDS011;8842;51.244;7.102;2024-03-02T04:43:15;8.00;;;7.60;;
17449;SDS011;8842;51.244;7.102;2024-03-02T04:48:19;8.10;;;7.70;;
17449;SDS011;8842;51.244;7.102;2024-03-02T04:53:24;8.50;;;8.10;;
17449;SDS011;8842;51.244;7.102;2024-03-02T04:58:28;7.90;;;7.50;;
17449;SDS011;8842;51.244;7.102;2024-03-02T05:03:33;7.90;;;7.50;;
17449;SDS011;8842;51.244;7.102;2024-03-02T05:08:37;7.90;;;7.50;;
17449;SDS011;8842;51.244;7.102;2024-03-02T05:13:41;7.90;;;7.50;;
17449;SDS011;8842;51.244;7.102;2024-03-02T05:18:53;8.50;;;8.10;;
17449;SDS011;8842;51.244;7.102;2024-03-02T05:23:57;7.97;;;7.57;;
17449;SDS011;8842;51.244;7.102;2024-03-02T05:29:01;8.30;;;7.90;;
17449;SDS011;8842;51.244;7.102;2024-03-02T05:34:05;8.50;;;8.10;;
17449;SDS011;8842;51.244;7.102;2024-03-02T05:39:10;7.90;;;7.50;;
17449;SDS011;8842;51.244;7.102;2024-03-02T05:44:14;8.20;;;7.80;;
17449;SDS011;8842;51.244;7.102;2024-03-02T05:49:18;8.43;;;8.03;;
17449;SDS011;8842;51.244;7.102;2024-03-02T05:54:22;8.27;;;7.87;;
17449;SDS011;8842;51.244;7.102;2024-03-02T05:59:26;9.50;;;8.90;;
17449;SDS011;8842;51.244;7.102;2024-03-02T06:04:30;8.70;;;8.27;;
17449;SDS011;8842;51.244;7.102;2024-03-02T06:09:34;8.50;;;8.10;;
17449;SDS011;8842;51.244;7.102;2024-03-02T06:14:38;9.20;;;8.70;;
17449;SDS011;8842;51.244;7.102;2024-03-02T06:19:42;8.87;;;8.33;;
17449;SDS011;8842;51.244;7.102;2024-03-02T06:24:54;8.67;;;8.27;;
17449;SDS011;8842;51.244;7.102;2024-03-02T06:29:58;8.70;;;8.30;;
17449;SDS011;8842;51.244;7.102;2024-03-02T06:35:10;8.10;;;7.70;;
17449;SDS011;8842;51.244;7.102;2024-03-02T06:40:15;8.97;;;8.47;;
17449;SDS011;8842;51.244;7.102;2024-03-02T06:50:30;8.20;;;7.80;;
17449;SDS011;8842;51.244;7.102;2024-03-02T06:55:34;8.53;;;7.67;;
17449;SDS011;8842;51.244;7.102;2024-03-02T07:05:49;7.80;;;7.40;;
17449;SDS011;8842;51.244;7.102;2024-03-02T07:10:53;7.73;;;7.33;;
17449;SDS011;8842;51.244;7.102;2024-03-02T07:15:57;8.30;;;7.90;;
17449;SDS011;8842;51.244;7.102;2024-03-02T07:21:24;7.80;;;7.40;;
17449;SDS011;8842;51.244;7.102;2024-03-02T07:26:28;7.40;;;7.10;;
17449;SDS011;8842;51.244;7.102;2024-03-02T07:31:40;8.40;;;8.00;;
17449;SDS011;8842;51.244;7.102;2024-03-02T07:36:43;7.80;;;7.40;;
17449;SDS011;8842;51.244;7.102;2024-03-02T07:41:55;8.00;;;7.60;;
17449;SDS011;8842;51.244;7.102;2024-03-02T07:46:59;7.50;;;7.20;;
17449;SDS011;8842;51.244;7.102;2024-03-02T07:52:04;7.60;;;7.20;;
17449;SDS011;8842;51.244;7.102;2024-03-02T08:02:19;7.50;;;7.00;;
17449;SDS011;8842;51.244;7.102;2024-03-02T08:07:24;7.50;;;7.10;;
17449;SDS011;8842;51.244;7.102;2024-03-02T08:12:28;7.20;;;6.90;;
17449;SDS011;8842;51.244;7.102;2024-03-02T08:17:33;7.93;;;7.53;;
17449;SDS011;8842;51.244;7.102;2024-03-02T08:22:44;8.97;;;8.47;;
17449;SDS011;8842;51.244;7.102;2024-03-02T08:27:49;7.93;;;7.33;;
17449;SDS011;8842;51.244;7.102;2024-03-02T08:33:01;7.13;;;6.80;;
17449;SDS011;8842;51.244;7.102;2024-03-02T08:38:05;7.53;;;7.13;;
17449;SDS011;8842;51.244;7.102;2024-03-02T08:43:20;7.40;;;7.00;;
17449;SDS011;8842;51.244;7.102;2024-03-02T08:48:25;7.10;;;6.80;;
17449;SDS011;8842;51.244;7.102;2024-03-02T08:58:40;7.00;;;6.60;;
17449;SDS011;8842;51.244;7.102;2024-03-02T09:03:44;5.83;;;5.53;;
17449;SDS011;8842;51.244;7.102;2024-03-02T09:08:56;6.10;;;5.80;;
17449;SDS011;8842;51.244;7.102;2024-03-02T09:14:00;5.93;;;5.63;;
17449;SDS011;8842;51.244;7.102;2024-03-02T09:19:11;5.70;;;5.50;;
17449;SDS011;8842;51.244;7.102;2024-03-02T09:24:15;6.20;;;5.90;;
17449;SDS011;8842;51.244;7.102;2024-03-02T09:34:33;6.00;;;5.70;;
17449;SDS011;8842;51.244;7.102;2024-03-02T09:39:37;6.30;;;6.00;;
17449;SDS011;8842;51.244;7.102;2024-03-02T09:44:48;5.77;;;5.57;;
17449;SDS011;8842;51.244;7.102;2024-03-02T09:49:52;5.80;;;5.50;;
17449;SDS011;8842;51.244;7.102;2024-03-02T09:54:58;6.30;;;6.00;;
17449;SDS011;8842;51.244;7.102;2024-03-02T10:00:03;6.10;;;5.80;;
17449;SDS011;8842;51.244;7.102;2024-03-02T10:05:09;6.00;;;5.70;;
17449;SDS011;8842;51.244;7.102;2024-03-02T10:10:21;5.93;;;5.63;;
17449;SDS011;8842;51.244;7.102;2024-03-02T10:15:25;5.90;;;5.60;;
17449;SDS011;8842;51.244;7.102;2024-03-02T10:20:30;6.10;;;5.80;;
17449;SDS011;8842;51.244;7.102;2024-03-02T10:25:36;6.23;;;5.83;;
17449;SDS011;8842;51.244;7.102;2024-03-02T10:30:40;6.20;;;5.90;;
17449;SDS011;8842;51.244;7.102;2024-03-02T10:35:44;6.00;;;5.70;;
17449;SDS011;8842;51.244;7.102;2024-03-02T10:40:50;5.60;;;5.30;;
17449;SDS011;8842;51.244;7.102;2024-03-02T10:45:55;5.23;;;5.03;;
17449;SDS011;8842;51.244;7.102;2024-03-02T10:51:01;5.00;;;4.80;;
17449;SDS011;8842;51.244;7.102;2024-03-02T10:56:28;5.70;;;5.50;;
17449;SDS011;8842;51.244;7.102;2024-03-02T11:01:33;5.40;;;5.20;;
17449;SDS011;8842;51.244;7.102;2024-03-02T11:06:40;5.30;;;5.10;;
17449;SDS011;8842;51.244;7.102;2024-03-02T11:11:56;5.83;;;5.53;;
17449;SDS011;8842;51.244;7.102;2024-03-02T11:17:04;5.60;;;5.40;;
17449;SDS011;8842;51.244;7.102;2024-03-02T11:22:16;5.70;;;5.40;;
17449;SDS011;8842;51.244;7.102;2024-03-02T11:33:11;6.20;;;5.90;;
17449;SDS011;8842;51.244;7.102;2024-03-02T11:38:15;5.83;;;5.53;;
17449;SDS011;8842;51.244;7.102;2024-03-02T11:43:20;5.80;;;5.50;;
17449;SDS011;8842;51.244;7.102;2024-03-02T11:48:26;5.73;;;5.43;;
17449;SDS011;8842;51.244;7.102;2024-03-02T11:53:30;6.40;;;6.10;;
17449;SDS011;8842;51.244;7.102;2024-03-02T11:58:36;5.93;;;5.63;;
17449;SDS011;8842;51.244;7.102;2024-03-02T12:03:43;5.60;;;5.40;;
17449;SDS011;8842;51.244;7.102;2024-03-02T12:08:58;6.67;;;6.10;;
17449;SDS011;8842;51.244;7.102;2024-03-02T12:14:02;5.60;;;5.40;;
17449;SDS011;8842;51.244;7.102;2024-03-02T12:19:07;6.70;;;6.40;;
17449;SDS011;8842;51.244;7.102;2024-03-02T12:24:19;5.90;;;5.60;;
17449;SDS011;8842;51.244;7.102;2024-03-02T12:29:23;5.50;;;5.30;;
17449;SDS011;8842;51.244;7.102;2024-03-02T12:34:27;6.70;;;6.40;;
17449;SDS011;8842;51.244;7.102;2024-03-02T12:39:44;6.63;;;6.33;;
17449;SDS011;8842;51.244;7.102;2024-03-02T12:44:51;6.77;;;6.47;;
17449;SDS011;8842;51.244;7.102;2024-03-02T12:50:05;6.40;;;6.10;;
17449;SDS011;8842;51.244;7.102;2024-03-02T12:55:10;7.00;;;6.70;;
17449;SDS011;8842;51.244;7.102;2024-03-02T13:00:22;5.67;;;5.47;;
17449;SDS011;8842;51.244;7.102;2024-03-02T13:05:29;6.70;;;6.40;;
17449;SDS011;8842;51.244;7.102;2024-03-02T13:10:34;6.70;;;6.40;;
17449;SDS011;8842;51.244;7.102;2024-03-02T13:15:46;6.57;;;6.27;;
17449;SDS011;8842;51.244;7.102;2024-03-02T13:20:50;6.70;;;6.40;;
17449;SDS011;8842;51.244;7.102;2024-03-02T13:25:55;6.57;;;6.27;;
17449;SDS011;8842;51.244;7.102;2024-03-02T13:30:59;6.83;;;6.53;;
17449;SDS011;8842;51.244;7.102;2024-03-02T13:36:06;6.80;;;6.50;;
17449;SDS011;8842;51.244;7.102;2024-03-02T13:41:16;7.23;;;6.93;;
17449;SDS011;8842;51.244;7.102;2024-03-02T13:46:20;6.60;;;6.30;;
17449;SDS011;8842;51.244;7.102;2024-03-02T13:51:32;6.30;;;6.00;;
17449;SDS011;8842;51.244;7.102;2024-03-02T13:56:36;6.10;;;5.80;;
17449;SDS011;8842;51.244;7.102;2024-03-02T14:01:41;5.63;;;5.43;;
17449;SDS011;8842;51.244;7.102;2024-03-02T14:06:46;5.70;;;5.50;;
17449;SDS011;8842;51.244;7.102;2024-03-02T14:11:50;5.20;;;5.00;;
17449;SDS011;8842;51.244;7.102;2024-03-02T14:16:54;5.63;;;5.43;;
17449;SDS011;8842;51.244;7.102;2024-03-02T14:21:58;5.33;;;5.13;;
17449;SDS011;8842;51.244;7.102;2024-03-02T14:27:03;5.50;;;5.20;;
17449;SDS011;8842;51.244;7.102;2024-03-02T14:32:15;5.30;;;5.10;;
17449;SDS011;8842;51.244;7.102;2024-03-02T14:37:19;4.87;;;4.67;;
17449;SDS011;8842;51.244;7.102;2024-03-02T14:42:24;4.90;;;4.70;;
17449;SDS011;8842;51.244;7.102;2024-03-02T14:47:28;5.10;;;4.90;;
17449;SDS011;8842;51.244;7.102;2024-03-02T14:57:43;5.03;;;4.83;;
17449;SDS011;8842;51.244;7.102;2024-03-02T15:02:48;5.90;;;5.60;;
17449;SDS011;8842;51.244;7.102;2024-03-02T15:08:00;5.50;;;5.30;;
17449;SDS011;8842;51.244;7.102;2024-03-02T15:13:06;5.40;;;5.20;;
17449;SDS011;8842;51.244;7.102;2024-03-02T15:18:10;5.60;;;5.33;;
17449;SDS011;8842;51.244;7.102;2024-03-02T15:23:14;5.30;;;5.10;;
17449;SDS011;8842;51.244;7.102;2024-03-02T15:33:29;5.20;;;5.00;;
17449;SDS011;8842;51.244;7.102;2024-03-02T15:38:34;6.20;;;5.90;;
17449;SDS011;8842;51.244;7.102;2024-03-02T15:43:39;5.20;;;5.00;;
17449;SDS011;8842;51.244;7.102;2024-03-02T15:48:45;6.10;;;5.80;;
17449;SDS011;8842;51.244;7.102;2024-03-02T15:53:49;7.73;;;6.23;;
17449;SDS011;8842;51.244;7.102;2024-03-02T15:58:53;7.07;;;6.47;;
17449;SDS011;8842;51.244;7.102;2024-03-02T16:09:08;6.70;;;6.40;;
17449;SDS011;8842;51.244;7.102;2024-03-02T16:14:13;6.90;;;6.50;;
17449;SDS011;8842;51.244;7.102;2024-03-02T16:19:28;6.77;;;6.47;;
17449;SDS011;8842;51.244;7.102;2024-03-02T16:24:32;6.50;;;6.20;;
17449;SDS011;8842;51.244;7.102;2024-03-02T16:29:36;7.13;;;6.73;;
17449;SDS011;8842;51.244;7.102;2024-03-02T16:34:40;6.87;;;6.57;;
17449;SDS011;8842;51.244;7.102;2024-03-02T16:39:45;6.87;;;6.57;;
17449;SDS011;8842;51.244;7.102;2024-03-02T16:44:49;6.30;;;6.00;;
17449;SDS011;8842;51.244;7.102;2024-03-02T16:49:55;6.50;;;6.20;;
17449;SDS011;8842;51.244;7.102;2024-03-02T16:55:00;12.43;;;6.70;;
17449;SDS011;8842;51.244;7.102;2024-03-02T17:00:06;5.50;;;5.30;;
17449;SDS011;8842;51.244;7.102;2024-03-02T17:05:19;5.23;;;5.03;;
17449;SDS011;8842;51.244;7.102;2024-03-02T17:10:24;6.50;;;6.10;;
17449;SDS011;8842;51.244;7.102;2024-03-02T17:15:28;5.83;;;5.53;;
17449;SDS011;8842;51.244;7.102;2024-03-02T17:20:40;6.03;;;5.73;;
17449;SDS011;8842;51.244;7.102;2024-03-02T17:25:44;6.00;;;5.70;;
17449;SDS011;8842;51.244;7.102;2024-03-02T17:30:48;6.00;;;5.70;;
17449;SDS011;8842;51.244;7.102;2024-03-02T17:35:52;6.40;;;5.90;;
17449;SDS011;8842;51.244;7.102;2024-03-02T17:40:56;6.40;;;6.10;;
17449;SDS011;8842;51.244;7.102;2024-03-02T17:46:01;6.80;;;6.50;;
17449;SDS011;8842;51.244;7.102;2024-03-02T17:51:06;6.37;;;6.07;;
17449;SDS011;8842;51.244;7.102;2024-03-02T17:56:10;6.60;;;6.30;;
17449;SDS011;8842;51.244;7.102;2024-03-02T18:01:24;6.40;;;6.10;;
17449;SDS011;8842;51.244;7.102;2024-03-02T18:06:28;6.30;;;6.00;;
17449;SDS011;8842;51.244;7.102;2024-03-02T18:11:40;6.30;;;6.00;;
17449;SDS011;8842;51.244;7.102;2024-03-02T18:16:45;7.10;;;6.80;;
17449;SDS011;8842;51.244;7.102;2024-03-02T18:21:49;7.30;;;6.90;;
17449;SDS011;8842;51.244;7.102;2024-03-02T18:26:53;7.53;;;7.00;;
17449;SDS011;8842;51.244;7.102;2024-03-02T18:32:05;7.80;;;7.40;;
17449;SDS011;8842;51.244;7.102;2024-03-02T18:37:09;8.57;;;7.80;;
17449;SDS011;8842;51.244;7.102;2024-03-02T18:42:14;7.10;;;6.80;;
17449;SDS011;8842;51.244;7.102;2024-03-02T18:47:18;7.63;;;7.23;;
17449;SDS011;8842;51.244;7.102;2024-03-02T18:52:22;8.03;;;7.63;;
17449;SDS011;8842;51.244;7.102;2024-03-02T18:57:27;7.87;;;7.47;;
17449;SDS011;8842;51.244;7.102;2024-03-02T19:02:31;7.77;;;7.37;;
17449;SDS011;8842;51.244;7.102;2024-03-02T19:07:43;7.80;;;7.30;;
17449;SDS011;8842;51.244;7.102;2024-03-02T19:12:47;8.17;;;7.63;;
17449;SDS011;8842;51.244;7.102;2024-03-02T19:23:04;7.30;;;7.00;;
17449;SDS011;8842;51.244;7.102;2024-03-02T19:28:09;7.40;;;7.10;;
17449;SDS011;8842;51.244;7.102;2024-03-02T19:33:13;7.57;;;7.17;;
17449;SDS011;8842;51.244;7.102;2024-03-02T19:38:25;7.20;;;6.90;;
17449;SDS011;8842;51.244;7.102;2024-03-02T19:43:29;7.60;;;7.20;;
17449;SDS011;8842;51.244;7.102;2024-03-02T19:48:34;7.70;;;7.30;;
17449;SDS011;8842;51.244;7.102;2024-03-02T19:53:38;7.80;;;7.40;;
17449;SDS011;8842;51.244;7.102;2024-03-02T19:58:42;7.80;;;7.40;;
17449;SDS011;8842;51.244;7.102;2024-03-02T20:03:46;7.40;;;7.07;;
17449;SDS011;8842;51.244;7.102;2024-03-02T20:08:52;7.97;;;7.57;;
17449;SDS011;8842;51.244;7.102;2024-03-02T20:14:04;8.07;;;7.47;;
17449;SDS011;8842;51.244;7.102;2024-03-02T20:19:08;7.93;;;7.50;;
17449;SDS011;8842;51.244;7.102;2024-03-02T20:24:12;8.23;;;7.73;;
17449;SDS011;8842;51.244;7.102;2024-03-02T20:29:17;7.90;;;7.50;;
17449;SDS011;8842;51.244;7.102;2024-03-02T20:34:21;8.00;;;7.60;;
17449;SDS011;8842;51.244;7.102;2024-03-02T20:39:25;8.30;;;7.80;;
17449;SDS011;8842;51.244;7.102;2024-03-02T20:44:37;7.70;;;7.30;;
17449;SDS011;8842;51.244;7.102;2024-03-02T20:49:41;8.10;;;7.60;;
17449;SDS011;8842;51.244;7.102;2024-03-02T20:54:53;8.10;;;7.70;;
17449;SDS011;8842;51.244;7.102;2024-03-02T20:59:57;8.23;;;7.83;;
17449;SDS011;8842;51.244;7.102;2024-03-02T21:05:01;8.80;;;8.30;;
17449;SDS011;8842;51.244;7.102;2024-03-02T21:10:06;8.67;;;8.17;;
17449;SDS011;8842;51.244;7.102;2024-03-02T21:15:11;8.70;;;8.27;;
17449;SDS011;8842;51.244;7.102;2024-03-02T21:20:15;8.90;;;8.30;;
17449;SDS011;8842;51.244;7.102;2024-03-02T21:25:20;8.60;;;8.10;;
17449;SDS011;8842;51.244;7.102;2024-03-02T21:30:31;8.00;;;7.60;;
17449;SDS011;8842;51.244;7.102;2024-03-02T21:35:37;9.33;;;8.70;;
17449;SDS011;8842;51.244;7.102;2024-03-02T21:40:52;8.10;;;7.70;;
17449;SDS011;8842;51.244;7.102;2024-03-02T21:45:56;8.53;;;8.13;;
17449;SDS011;8842;51.244;7.102;2024-03-02T21:51:00;8.50;;;8.10;;
17449;SDS011;8842;51.244;7.102;2024-03-02T21:56:12;9.87;;;9.17;;
17449;SDS011;8842;51.244;7.102;2024-03-02T22:01:17;9.10;;;8.53;;
17449;SDS011;8842;51.244;7.102;2024-03-02T22:06:21;9.63;;;9.03;;
17449;SDS011;8842;51.244;7.102;2024-03-02T22:11:36;8.10;;;7.70;;
17449;SDS011;8842;51.244;7.102;2024-03-02T22:16:40;9.60;;;9.00;;
17449;SDS011;8842;51.244;7.102;2024-03-02T22:21:44;8.77;;;8.17;;
17449;SDS011;8842;51.244;7.102;2024-03-02T22:26:49;8.67;;;8.17;;
17449;SDS011;8842;51.244;7.102;2024-03-02T22:31:53;8.07;;;7.67;;
17449;SDS011;8842;51.244;7.102;2024-03-02T22:36:57;7.97;;;7.57;;
17449;SDS011;8842;51.244;7.102;2024-03-02T22:42:08;8.97;;;8.47;;
17449;SDS011;8842;51.244;7.102;2024-03-02T22:47:13;8.93;;;8.40;;
17449;SDS011;8842;51.244;7.102;2024-03-02T22:57:28;9.30;;;8.37;;
17449;SDS011;8842;51.244;7.102;2024-03-02T23:02:32;9.13;;;8.10;;
17449;SDS011;8842;51.244;7.102;2024-03-02T23:07:36;9.00;;;8.30;;
17449;SDS011;8842;51.244;7.102;2024-03-02T23:12:47;14.70;;;8.13;;
17449;SDS011;8842;51.244;7.102;2024-03-02T23:17:52;8.40;;;7.80;;
17449;SDS011;8842;51.244;7.102;2024-03-02T23:22:57;7.90;;;7.50;;
17449;SDS011;8842;51.244;7.102;2024-03-02T23:28:03;8.83;;;8.33;;
17449;SDS011;8842;51.244;7.102;2024-03-02T23:33:08;8.63;;;8.13;;
17449;SDS011;8842;51.244;7.102;2024-03-02T23:38:22;8.00;;;7.60;;
17449;SDS011;8842;51.244;7.102;2024-03-02T23:48:37;8.70;;;8.10;;
17449;SDS011;8842;51.244;7.102;2024-03-02T23:53:41;8.67;;;7.80;;
17449;SDS011;8842;51.244;7.102;2024-03-02T23:58:53;8.10;;;7.70;;
